sensor_id;sensor_type;location;lat;lon;timestamp;pressure;altitude;pressure_sealevel;temperature;humidity
19890;BME280;10107;51.198;6.824;2023-08-20T00:00:42;-21861.22;;;20.91;100.00
19890;BME280;10107;51.198;6.824;2023-08-20T00:04:46;-21861.88;;;20.94;100.00
19890;BME280;10107;51.198;6.824;2023-08-20T00:08:48;-21862.66;;;20.97;100.00
19890;BME280;10107;51.198;6.824;2023-08-20T00:12:49;-21862.00;;;20.94;100.00
19890;BME280;10107;51.198;6.824;2023-08-20T00:16:51;-21860.84;;;20.90;100.00
19890;BME280;10107;51.198;6.824;2023-08-20T00:20:55;-21859.91;;;20.86;100.00
19890;BME280;10107;51.198;6.824;2023-08-20T00:24:57;-21858.88;;;20.82;100.00
19890;BME280;10107;51.198;6.824;2023-08-20T00:28:59;-21858.88;;;20.82;100.00
19890;BME280;10107;51.198;6.824;2023-08-20T00:33:00;-21858.63;;;20.81;100.00
19890;BME280;10107;51.198;6.824;2023-08-20T00:37:04;-21857.72;;;20.77;100.00
19890;BME280;10107;51.198;6.824;2023-08-20T00:41:06;-21856.81;;;20.74;100.00
19890;BME280;10107;51.198;6.824;2023-08-20T00:45:08;-21856.28;;;20.72;100.00
19890;BME280;10107;51.198;6.824;2023-08-20T00:49:10;-21855.63;;;20.69;100.00
19890;BME280;10107;51.198;6.824;2023-08-20T00:53:13;-21854.59;;;20.65;100.00
19890;BME280;10107;51.198;6.824;2023-08-20T00:57:17;-21852.75;;;20.58;100.00
19890;BME280;10107;51.198;6.824;2023-08-20T01:01:19;-21851.44;;;20.53;100.00
19890;BME280;10107;51.198;6.824;2023-08-20T01:05:21;-21850.16;;;20.48;100.00
19890;BME280;10107;51.198;6.824;2023-08-20T01:09:30;-21848.31;;;20.41;100.00
19890;BME280;10107;51.198;6.824;2023-08-20T01:13:33;-21845.84;;;20.31;100.00
19890;BME280;10107;51.198;6.824;2023-08-20T01:17:35;-21844.16;;;20.24;100.00
19890;BME280;10107;51.198;6.824;2023-08-20T01:21:38;-21842.72;;;20.18;100.00
19890;BME280;10107;51.198;6.824;2023-08-20T01:26:02;-21841.41;;;20.13;100.00
19890;BME280;10107;51.198;6.824;2023-08-20T01:30:11;-21840.38;;;20.09;100.00
19890;BME280;10107;51.198;6.824;2023-08-20T01:34:13;-21839.59;;;20.06;100.00
19890;BME280;10107;51.198;6.824;2023-08-20T01:38:15;-21839.22;;;20.05;100.00
19890;BME280;10107;51.198;6.824;2023-08-20T01:42:17;-21838.94;;;20.04;100.00
19890;BME280;10107;51.198;6.824;2023-08-20T01:46:21;-21838.44;;;20.02;100.00
19890;BME280;10107;51.198;6.824;2023-08-20T01:50:25;-21838.16;;;20.01;100.00
19890;BME280;10107;51.198;6.824;2023-08-20T01:54:27;-21838.44;;;20.02;100.00
19890;BME280;10107;51.198;6.824;2023-08-20T01:58:30;-21838.56;;;20.02;100.00
19890;BME280;10107;51.198;6.824;2023-08-20T02:02:34;-21838.28;;;20.01;100.00
19890;BME280;10107;51.198;6.824;2023-08-20T02:06:35;-21837.25;;;19.97;100.00
19890;BME280;10107;51.198;6.824;2023-08-20T02:10:37;-21835.81;;;19.91;100.00
19890;BME280;10107;51.198;6.824;2023-08-20T02:14:39;-21834.50;;;19.86;100.00
19890;BME280;10107;51.198;6.824;2023-08-20T02:18:42;-21833.22;;;19.81;100.00
19890;BME280;10107;51.198;6.824;2023-08-20T02:22:43;-21832.03;;;19.76;100.00
19890;BME280;10107;51.198;6.824;2023-08-20T02:26:45;-21831.38;;;19.74;100.00
19890;BME280;10107;51.198;6.824;2023-08-20T02:30:47;-21830.88;;;19.72;100.00
19890;BME280;10107;51.198;6.824;2023-08-20T02:34:50;-21831.13;;;19.73;100.00
19890;BME280;10107;51.198;6.824;2023-08-20T02:38:52;-21832.94;;;19.80;100.00
19890;BME280;10107;51.198;6.824;2023-08-20T02:42:54;-21835.94;;;19.92;100.00
19890;BME280;10107;51.198;6.824;2023-08-20T02:46:55;-21838.94;;;20.04;100.00
19890;BME280;10107;51.198;6.824;2023-08-20T02:50:59;-21840.50;;;20.10;100.00
19890;BME280;10107;51.198;6.824;2023-08-20T02:55:01;-21840.78;;;20.11;100.00
19890;BME280;10107;51.198;6.824;2023-08-20T02:59:04;-21840.25;;;20.09;100.00
19890;BME280;10107;51.198;6.824;2023-08-20T03:03:05;-21839.22;;;20.05;100.00
19890;BME280;10107;51.198;6.824;2023-08-20T03:07:10;-21837.13;;;19.96;100.00
19890;BME280;10107;51.198;6.824;2023-08-20T03:11:12;-21835.28;;;19.89;100.00
19890;BME280;10107;51.198;6.824;2023-08-20T03:15:14;-21834.13;;;19.85;100.00
19890;BME280;10107;51.198;6.824;2023-08-20T03:19:15;-21833.06;;;19.81;100.00
19890;BME280;10107;51.198;6.824;2023-08-20T03:23:18;-21833.06;;;19.81;100.00
19890;BME280;10107;51.198;6.824;2023-08-20T03:27:20;-21833.47;;;19.82;100.00
19890;BME280;10107;51.198;6.824;2023-08-20T03:31:22;-21834.50;;;19.86;100.00
19890;BME280;10107;51.198;6.824;2023-08-20T03:35:24;-21836.47;;;19.94;100.00
19890;BME280;10107;51.198;6.824;2023-08-20T03:39:27;-21837.78;;;19.99;100.00
19890;BME280;10107;51.198;6.824;2023-08-20T03:43:28;-21838.28;;;20.01;100.00
19890;BME280;10107;51.198;6.824;2023-08-20T03:47:30;-21837.78;;;19.99;100.00
19890;BME280;10107;51.198;6.824;2023-08-20T03:51:32;-21837.00;;;19.96;100.00
19890;BME280;10107;51.198;6.824;2023-08-20T03:55:35;-21835.94;;;19.92;100.00
19890;BME280;10107;51.198;6.824;2023-08-20T03:59:36;-21834.78;;;19.87;100.00
19890;BME280;10107;51.198;6.824;2023-08-20T04:03:38;-21833.59;;;19.83;100.00
19890;BME280;10107;51.198;6.824;2023-08-20T04:07:39;-21832.94;;;19.80;100.00
19890;BME280;10107;51.198;6.824;2023-08-20T04:11:42;-21830.88;;;19.72;100.00
19890;BME280;10107;51.198;6.824;2023-08-20T04:15:44;-21829.56;;;19.67;100.00
19890;BME280;10107;51.198;6.824;2023-08-20T04:19:46;-21828.78;;;19.64;100.00
19890;BME280;10107;51.198;6.824;2023-08-20T04:23:47;-21828.25;;;19.62;100.00
19890;BME280;10107;51.198;6.824;2023-08-20T04:27:50;-21828.38;;;19.62;100.00
19890;BME280;10107;51.198;6.824;2023-08-20T04:31:52;-21828.78;;;19.64;100.00
19890;BME280;10107;51.198;6.824;2023-08-20T04:35:53;-21830.06;;;19.69;100.00
19890;BME280;10107;51.198;6.824;2023-08-20T04:39:55;-21830.19;;;19.69;100.00
19890;BME280;10107;51.198;6.824;2023-08-20T04:43:58;-21830.88;;;19.72;100.00
19890;BME280;10107;51.198;6.824;2023-08-20T04:48:01;-21831.91;;;19.76;100.00
19890;BME280;10107;51.198;6.824;2023-08-20T04:52:04;-21833.47;;;19.82;100.00
19890;BME280;10107;51.198;6.824;2023-08-20T04:56:05;-21836.34;;;19.93;100.00
19890;BME280;10107;51.198;6.824;2023-08-20T05:00:09;-21839.22;;;20.05;100.00
19890;BME280;10107;51.198;6.824;2023-08-20T05:04:18;-21841.41;;;20.13;100.00
19890;BME280;10107;51.198;6.824;2023-08-20T05:08:20;-21843.25;;;20.21;100.00
19890;BME280;10107;51.198;6.824;2023-08-20T05:12:22;-21843.78;;;20.23;100.00
19890;BME280;10107;51.198;6.824;2023-08-20T05:16:25;-21844.03;;;20.24;100.00
19890;BME280;10107;51.198;6.824;2023-08-20T05:20:27;-21845.19;;;20.28;100.00
19890;BME280;10107;51.198;6.824;2023-08-20T05:24:29;-21848.06;;;20.40;100.00
19890;BME280;10107;51.198;6.824;2023-08-20T05:28:31;-21851.44;;;20.53;100.00
19890;BME280;10107;51.198;6.824;2023-08-20T05:32:34;-21855.75;;;20.70;100.00
19890;BME280;10107;51.198;6.824;2023-08-20T05:36:35;-21858.50;;;20.81;100.00
19890;BME280;10107;51.198;6.824;2023-08-20T05:40:37;-21859.66;;;20.85;100.00
19890;BME280;10107;51.198;6.824;2023-08-20T05:44:39;-21861.63;;;20.93;100.00
19890;BME280;10107;51.198;6.824;2023-08-20T05:48:46;-21865.25;;;21.07;100.00
19890;BME280;10107;51.198;6.824;2023-08-20T05:52:48;-21868.91;;;21.22;100.00
19890;BME280;10107;51.198;6.824;2023-08-20T05:56:50;-21872.94;;;21.38;100.00
19890;BME280;10107;51.198;6.824;2023-08-20T06:00:52;-21876.97;;;21.53;100.00
19890;BME280;10107;51.198;6.824;2023-08-20T06:04:55;-21882.69;;;21.76;100.00
19890;BME280;10107;51.198;6.824;2023-08-20T06:08:56;-21913.97;;;23.00;100.00
19890;BME280;10107;51.198;6.824;2023-08-20T06:12:58;-21971.41;;;25.27;100.00
19890;BME280;10107;51.198;6.824;2023-08-20T06:16:59;-22045.81;;;28.24;94.41
19890;BME280;10107;51.198;6.824;2023-08-20T06:21:02;-22099.34;;;30.38;79.21
19890;BME280;10107;51.198;6.824;2023-08-20T06:25:05;-22138.91;;;31.97;71.29
19890;BME280;10107;51.198;6.824;2023-08-20T06:29:07;-22166.66;;;33.09;65.78
19890;BME280;10107;51.198;6.824;2023-08-20T06:33:08;-22190.88;;;34.07;60.57
19890;BME280;10107;51.198;6.824;2023-08-20T06:37:11;-22212.53;;;34.95;57.07
19890;BME280;10107;51.198;6.824;2023-08-20T06:41:13;-22228.34;;;35.59;54.49
19890;BME280;10107;51.198;6.824;2023-08-20T06:45:15;-22246.16;;;36.32;50.97
19890;BME280;10107;51.198;6.824;2023-08-20T06:49:16;-22265.31;;;37.10;48.52
19890;BME280;10107;51.198;6.824;2023-08-20T06:53:19;-22287.59;;;38.00;46.09
19890;BME280;10107;51.198;6.824;2023-08-20T06:57:21;-22304.16;;;38.68;43.65
19890;BME280;10107;51.198;6.824;2023-08-20T07:01:22;-22324.34;;;39.51;40.88
19890;BME280;10107;51.198;6.824;2023-08-20T07:05:24;-22339.50;;;40.13;38.27
19890;BME280;10107;51.198;6.824;2023-08-20T07:09:27;-22354.25;;;40.73;36.40
19890;BME280;10107;51.198;6.824;2023-08-20T07:13:28;-22369.97;;;41.38;35.45
19890;BME280;10107;51.198;6.824;2023-08-20T07:17:30;-22381.81;;;41.87;33.86
19890;BME280;10107;51.198;6.824;2023-08-20T07:21:31;-22394.50;;;42.39;33.23
19890;BME280;10107;51.198;6.824;2023-08-20T07:25:36;-22412.41;;;43.13;31.56
19890;BME280;10107;51.198;6.824;2023-08-20T07:29:37;-22410.31;;;43.04;31.00
19890;BME280;10107;51.198;6.824;2023-08-20T07:33:39;-22395.63;;;42.44;32.67
19890;BME280;10107;51.198;6.824;2023-08-20T07:37:40;-22348.63;;;40.50;35.53
19890;BME280;10107;51.198;6.824;2023-08-20T07:41:43;-22325.22;;;39.54;37.42
19890;BME280;10107;51.198;6.824;2023-08-20T07:45:45;-22342.88;;;40.27;36.75
19890;BME280;10107;51.198;6.824;2023-08-20T07:49:47;-22384.31;;;41.97;33.38
19890;BME280;10107;51.198;6.824;2023-08-20T07:53:48;-22429.66;;;43.84;31.13
19890;BME280;10107;51.198;6.824;2023-08-20T07:57:51;-22468.75;;;45.46;27.82
19890;BME280;10107;51.198;6.824;2023-08-20T08:01:53;-22484.06;;;46.10;26.60
19890;BME280;10107;51.198;6.824;2023-08-20T08:05:55;-22488.72;;;46.30;25.59
19890;BME280;10107;51.198;6.824;2023-08-20T08:09:56;-22489.72;;;46.34;26.33
19890;BME280;10107;51.198;6.824;2023-08-20T08:13:59;-22477.88;;;45.84;26.40
19890;BME280;10107;51.198;6.824;2023-08-20T08:18:01;-22416.38;;;43.29;30.37
19890;BME280;10107;51.198;6.824;2023-08-20T08:22:03;-22375.97;;;41.63;32.76
19890;BME280;10107;51.198;6.824;2023-08-20T08:26:05;-22350.88;;;40.60;33.03
19890;BME280;10107;51.198;6.824;2023-08-20T08:30:08;-22333.75;;;39.89;34.12
19890;BME280;10107;51.198;6.824;2023-08-20T08:34:10;-22339.88;;;40.14;34.86
19890;BME280;10107;51.198;6.824;2023-08-20T08:38:11;-22354.25;;;40.73;34.29
19890;BME280;10107;51.198;6.824;2023-08-20T08:42:14;-22357.00;;;40.85;34.49
19890;BME280;10107;51.198;6.824;2023-08-20T08:46:17;-22344.75;;;40.34;33.83
19890;BME280;10107;51.198;6.824;2023-08-20T08:50:20;-22346.00;;;40.40;34.39
19890;BME280;10107;51.198;6.824;2023-08-20T08:54:22;-22351.50;;;40.62;34.75
19890;BME280;10107;51.198;6.824;2023-08-20T08:58:24;-22348.38;;;40.49;33.17
19890;BME280;10107;51.198;6.824;2023-08-20T09:02:26;-22322.97;;;39.45;35.60
19890;BME280;10107;51.198;6.824;2023-08-20T09:06:44;-22291.38;;;38.16;38.58
19890;BME280;10107;51.198;6.824;2023-08-20T09:10:45;-22338.75;;;40.10;34.92
19890;BME280;10107;51.198;6.824;2023-08-20T09:14:48;-22364.97;;;41.17;32.71
19890;BME280;10107;51.198;6.824;2023-08-20T09:18:51;-22296.88;;;38.38;35.82
19890;BME280;10107;51.198;6.824;2023-08-20T09:22:53;-22221.53;;;35.32;41.08
19890;BME280;10107;51.198;6.824;2023-08-20T09:26:57;-22254.34;;;36.65;41.49
19890;BME280;10107;51.198;6.824;2023-08-20T09:30:59;-22319.97;;;39.33;35.76
19890;BME280;10107;51.198;6.824;2023-08-20T09:35:04;-22349.00;;;40.52;31.53
19890;BME280;10107;51.198;6.824;2023-08-20T09:39:07;-22372.59;;;41.49;31.14
19890;BME280;10107;51.198;6.824;2023-08-20T09:43:10;-22396.88;;;42.49;30.45
19890;BME280;10107;51.198;6.824;2023-08-20T09:47:16;-22400.97;;;42.66;30.52
19890;BME280;10107;51.198;6.824;2023-08-20T09:51:24;-22324.72;;;39.52;33.67
19890;BME280;10107;51.198;6.824;2023-08-20T09:55:30;-22274.38;;;37.47;36.89
19890;BME280;10107;51.198;6.824;2023-08-20T09:59:34;-22216.34;;;35.10;42.46
19890;BME280;10107;51.198;6.824;2023-08-20T10:03:37;-22216.34;;;35.10;41.11
19890;BME280;10107;51.198;6.824;2023-08-20T10:07:42;-22195.69;;;34.27;43.94
19890;BME280;10107;51.198;6.824;2023-08-20T10:11:45;-22169.56;;;33.21;44.93
19890;BME280;10107;51.198;6.824;2023-08-20T10:15:46;-22239.97;;;36.06;41.92
19890;BME280;10107;51.198;6.824;2023-08-20T10:19:48;-22306.56;;;38.78;36.36
19890;BME280;10107;51.198;6.824;2023-08-20T10:23:51;-22291.13;;;38.15;36.50
19890;BME280;10107;51.198;6.824;2023-08-20T10:27:53;-22258.25;;;36.81;38.57
19890;BME280;10107;51.198;6.824;2023-08-20T10:31:55;-22291.00;;;38.14;36.42
19890;BME280;10107;51.198;6.824;2023-08-20T10:35:57;-22244.66;;;36.25;38.45
19890;BME280;10107;51.198;6.824;2023-08-20T10:40:00;-22235.06;;;35.86;40.54
19890;BME280;10107;51.198;6.824;2023-08-20T10:44:02;-22286.34;;;37.95;38.86
19890;BME280;10107;51.198;6.824;2023-08-20T10:48:05;-22327.25;;;39.63;34.66
19890;BME280;10107;51.198;6.824;2023-08-20T10:52:06;-22305.31;;;38.73;35.87
19890;BME280;10107;51.198;6.824;2023-08-20T10:56:11;-22237.94;;;35.98;39.67
19890;BME280;10107;51.198;6.824;2023-08-20T11:00:15;-22193.44;;;34.18;43.40
19890;BME280;10107;51.198;6.824;2023-08-20T11:04:18;-22223.81;;;35.41;41.78
19890;BME280;10107;51.198;6.824;2023-08-20T11:08:20;-22288.09;;;38.02;35.37
19890;BME280;10107;51.198;6.824;2023-08-20T11:12:23;-22338.50;;;40.09;32.07
19890;BME280;10107;51.198;6.824;2023-08-20T11:16:25;-22361.38;;;41.03;32.02
19890;BME280;10107;51.198;6.824;2023-08-20T11:20:26;-22338.88;;;40.10;32.40
19890;BME280;10107;51.198;6.824;2023-08-20T11:24:29;-22323.59;;;39.48;33.41
19890;BME280;10107;51.198;6.824;2023-08-20T11:28:31;-22261.91;;;36.96;36.35
19890;BME280;10107;51.198;6.824;2023-08-20T11:32:33;-22211.03;;;34.89;40.59
19890;BME280;10107;51.198;6.824;2023-08-20T11:36:35;-22193.28;;;34.17;43.16
19890;BME280;10107;51.198;6.824;2023-08-20T11:40:37;-22261.66;;;36.95;38.00
19890;BME280;10107;51.198;6.824;2023-08-20T11:44:45;-22291.50;;;38.16;34.92
19890;BME280;10107;51.198;6.824;2023-08-20T11:49:05;-22313.47;;;39.06;35.24
19890;BME280;10107;51.198;6.824;2023-08-20T11:53:08;-22300.78;;;38.54;34.93
19890;BME280;10107;51.198;6.824;2023-08-20T11:57:09;-22312.44;;;39.02;35.15
19890;BME280;10107;51.198;6.824;2023-08-20T12:01:14;-22255.38;;;36.69;38.14
19890;BME280;10107;51.198;6.824;2023-08-20T12:05:18;-22207.34;;;34.74;42.55
19890;BME280;10107;51.198;6.824;2023-08-20T12:09:21;-22181.88;;;33.71;45.28
19890;BME280;10107;51.198;6.824;2023-08-20T12:13:23;-22187.97;;;33.96;43.91
19890;BME280;10107;51.198;6.824;2023-08-20T12:17:27;-22171.34;;;33.28;45.86
19890;BME280;10107;51.198;6.824;2023-08-20T12:21:28;-22211.28;;;34.90;42.44
19890;BME280;10107;51.198;6.824;2023-08-20T12:25:31;-22256.63;;;36.74;39.59
19890;BME280;10107;51.198;6.824;2023-08-20T12:29:34;-22281.31;;;37.75;37.94
19890;BME280;10107;51.198;6.824;2023-08-20T12:33:37;-22288.47;;;38.04;36.88
19890;BME280;10107;51.198;6.824;2023-08-20T12:37:38;-22294.75;;;38.30;36.83
19890;BME280;10107;51.198;6.824;2023-08-20T12:41:40;-22248.06;;;36.39;37.95
19890;BME280;10107;51.198;6.824;2023-08-20T12:45:42;-22235.69;;;35.89;40.86
19890;BME280;10107;51.198;6.824;2023-08-20T12:49:45;-22241.25;;;36.12;38.73
19890;BME280;10107;51.198;6.824;2023-08-20T12:53:47;-22259.53;;;36.86;38.66
19890;BME280;10107;51.198;6.824;2023-08-20T12:57:52;-22260.41;;;36.90;37.39
19890;BME280;10107;51.198;6.824;2023-08-20T13:01:54;-22251.22;;;36.52;36.83
19890;BME280;10107;51.198;6.824;2023-08-20T13:05:57;-22232.03;;;35.74;39.87
19890;BME280;10107;51.198;6.824;2023-08-20T13:09:59;-22234.03;;;35.82;40.23
19890;BME280;10107;51.198;6.824;2023-08-20T13:14:02;-22242.25;;;36.16;41.12
19890;BME280;10107;51.198;6.824;2023-08-20T13:18:04;-22245.03;;;36.27;40.30
19890;BME280;10107;51.198;6.824;2023-08-20T13:22:09;-22240.84;;;36.10;40.07
19890;BME280;10107;51.198;6.824;2023-08-20T13:26:11;-22225.06;;;35.46;40.75
19890;BME280;10107;51.198;6.824;2023-08-20T13:30:12;-22220.16;;;35.26;40.37
19890;BME280;10107;51.198;6.824;2023-08-20T13:34:14;-22221.41;;;35.31;42.07
19890;BME280;10107;51.198;6.824;2023-08-20T13:38:17;-22213.06;;;34.97;39.44
19890;BME280;10107;51.198;6.824;2023-08-20T13:42:20;-22213.31;;;34.98;41.80
19890;BME280;10107;51.198;6.824;2023-08-20T13:46:22;-22207.50;;;34.75;42.65
19890;BME280;10107;51.198;6.824;2023-08-20T13:50:24;-22202.16;;;34.53;43.17
19890;BME280;10107;51.198;6.824;2023-08-20T13:54:27;-22193.94;;;34.20;41.23
19890;BME280;10107;51.198;6.824;2023-08-20T13:58:29;-22191.78;;;34.11;43.02
19890;BME280;10107;51.198;6.824;2023-08-20T14:02:30;-22185.31;;;33.85;44.47
19890;BME280;10107;51.198;6.824;2023-08-20T14:06:32;-22159.66;;;32.81;45.66
19890;BME280;10107;51.198;6.824;2023-08-20T14:10:35;-22145.03;;;32.22;47.76
19890;BME280;10107;51.198;6.824;2023-08-20T14:14:36;-22155.31;;;32.64;49.07
19890;BME280;10107;51.198;6.824;2023-08-20T14:18:38;-22158.00;;;32.74;47.73
19890;BME280;10107;51.198;6.824;2023-08-20T14:22:39;-22157.50;;;32.72;48.53
19890;BME280;10107;51.198;6.824;2023-08-20T14:26:42;-22156.47;;;32.68;47.55
19890;BME280;10107;51.198;6.824;2023-08-20T14:30:44;-22152.91;;;32.54;45.73
19890;BME280;10107;51.198;6.824;2023-08-20T14:34:46;-22147.94;;;32.34;47.50
19890;BME280;10107;51.198;6.824;2023-08-20T14:38:47;-22140.69;;;32.05;45.78
19890;BME280;10107;51.198;6.824;2023-08-20T14:42:50;-22132.16;;;31.70;47.49
19890;BME280;10107;51.198;6.824;2023-08-20T14:46:52;-22133.44;;;31.75;49.44
19890;BME280;10107;51.198;6.824;2023-08-20T14:50:53;-22132.53;;;31.72;48.10
19890;BME280;10107;51.198;6.824;2023-08-20T14:54:55;-22128.47;;;31.55;49.36
19890;BME280;10107;51.198;6.824;2023-08-20T14:58:58;-22124.50;;;31.39;48.48
19890;BME280;10107;51.198;6.824;2023-08-20T15:02:59;-22120.31;;;31.23;48.75
19890;BME280;10107;51.198;6.824;2023-08-20T15:07:01;-22117.22;;;31.10;49.74
19890;BME280;10107;51.198;6.824;2023-08-20T15:11:04;-22111.22;;;30.86;49.63
19890;BME280;10107;51.198;6.824;2023-08-20T15:15:08;-22106.91;;;30.69;49.54
19890;BME280;10107;51.198;6.824;2023-08-20T15:19:09;-22100.13;;;30.42;49.29
19890;BME280;10107;51.198;6.824;2023-08-20T15:23:11;-22097.06;;;30.29;51.51
19890;BME280;10107;51.198;6.824;2023-08-20T15:27:13;-22095.13;;;30.21;52.17
19890;BME280;10107;51.198;6.824;2023-08-20T15:31:16;-22093.09;;;30.13;52.28
19890;BME280;10107;51.198;6.824;2023-08-20T15:35:17;-22089.91;;;30.00;53.38
19890;BME280;10107;51.198;6.824;2023-08-20T15:39:19;-22088.63;;;29.95;53.18
19890;BME280;10107;51.198;6.824;2023-08-20T15:43:22;-22085.41;;;29.83;52.83
19890;BME280;10107;51.198;6.824;2023-08-20T15:47:24;-22084.03;;;29.77;52.01
19890;BME280;10107;51.198;6.824;2023-08-20T15:51:26;-22081.44;;;29.67;52.03
19890;BME280;10107;51.198;6.824;2023-08-20T15:55:28;-22078.63;;;29.55;51.29
19890;BME280;10107;51.198;6.824;2023-08-20T15:59:30;-22075.56;;;29.43;52.22
19890;BME280;10107;51.198;6.824;2023-08-20T16:03:32;-22072.25;;;29.30;53.68
19890;BME280;10107;51.198;6.824;2023-08-20T16:07:34;-22070.31;;;29.22;54.22
19890;BME280;10107;51.198;6.824;2023-08-20T16:11:36;-22069.28;;;29.18;52.81
19890;BME280;10107;51.198;6.824;2023-08-20T16:15:37;-22069.16;;;29.17;53.49
19890;BME280;10107;51.198;6.824;2023-08-20T16:19:40;-22068.13;;;29.13;53.50
19890;BME280;10107;51.198;6.824;2023-08-20T16:23:42;-22066.59;;;29.07;52.53
19890;BME280;10107;51.198;6.824;2023-08-20T16:27:43;-22063.66;;;28.95;52.14
19890;BME280;10107;51.198;6.824;2023-08-20T16:31:45;-22060.31;;;28.82;53.99
19890;BME280;10107;51.198;6.824;2023-08-20T16:35:48;-22059.94;;;28.80;53.56
19890;BME280;10107;51.198;6.824;2023-08-20T16:39:50;-22058.53;;;28.75;53.12
19890;BME280;10107;51.198;6.824;2023-08-20T16:43:51;-22058.00;;;28.73;52.97
19890;BME280;10107;51.198;6.824;2023-08-20T16:47:53;-22056.84;;;28.68;53.57
19890;BME280;10107;51.198;6.824;2023-08-20T16:51:56;-22051.34;;;28.46;53.88
19890;BME280;10107;51.198;6.824;2023-08-20T16:55:57;-22047.75;;;28.32;54.16
19890;BME280;10107;51.198;6.824;2023-08-20T16:59:59;-22047.50;;;28.31;54.58
19890;BME280;10107;51.198;6.824;2023-08-20T17:04:01;-22047.22;;;28.30;54.35
19890;BME280;10107;51.198;6.824;2023-08-20T17:08:05;-22045.94;;;28.24;54.36
19890;BME280;10107;51.198;6.824;2023-08-20T17:12:06;-22041.59;;;28.07;54.93
19890;BME280;10107;51.198;6.824;2023-08-20T17:16:08;-22040.81;;;28.04;55.37
19890;BME280;10107;51.198;6.824;2023-08-20T17:20:11;-22038.13;;;27.93;55.03
19890;BME280;10107;51.198;6.824;2023-08-20T17:24:14;-22034.91;;;27.80;54.50
19890;BME280;10107;51.198;6.824;2023-08-20T17:28:15;-22033.09;;;27.73;55.28
19890;BME280;10107;51.198;6.824;2023-08-20T17:32:17;-22030.16;;;27.61;56.22
19890;BME280;10107;51.198;6.824;2023-08-20T17:36:18;-22028.88;;;27.56;56.77
19890;BME280;10107;51.198;6.824;2023-08-20T17:40:21;-22026.56;;;27.47;56.73
19890;BME280;10107;51.198;6.824;2023-08-20T17:44:23;-22023.09;;;27.33;56.55
19890;BME280;10107;51.198;6.824;2023-08-20T17:48:25;-22020.13;;;27.21;56.97
19890;BME280;10107;51.198;6.824;2023-08-20T17:52:27;-22018.19;;;27.14;57.78
19890;BME280;10107;51.198;6.824;2023-08-20T17:56:30;-22016.66;;;27.08;58.13
19890;BME280;10107;51.198;6.824;2023-08-20T18:00:32;-22014.59;;;26.99;58.50
19890;BME280;10107;51.198;6.824;2023-08-20T18:04:33;-22011.38;;;26.86;58.89
19890;BME280;10107;51.198;6.824;2023-08-20T18:08:35;-22007.78;;;26.72;59.24
19890;BME280;10107;51.198;6.824;2023-08-20T18:12:40;-22004.81;;;26.60;59.05
19890;BME280;10107;51.198;6.824;2023-08-20T18:16:41;-22000.81;;;26.44;60.18
19890;BME280;10107;51.198;6.824;2023-08-20T18:20:43;-21998.63;;;26.36;60.98
19890;BME280;10107;51.198;6.824;2023-08-20T18:24:45;-21996.31;;;26.26;60.76
19890;BME280;10107;51.198;6.824;2023-08-20T18:28:47;-21993.72;;;26.16;61.51
19890;BME280;10107;51.198;6.824;2023-08-20T18:32:49;-21990.13;;;26.02;62.66
19890;BME280;10107;51.198;6.824;2023-08-20T18:36:51;-21986.13;;;25.86;63.12
19890;BME280;10107;51.198;6.824;2023-08-20T18:40:52;-21981.63;;;25.68;64.45
19890;BME280;10107;51.198;6.824;2023-08-20T18:44:55;-21978.66;;;25.56;65.54
19890;BME280;10107;51.198;6.824;2023-08-20T18:48:57;-21975.03;;;25.42;66.06
19890;BME280;10107;51.198;6.824;2023-08-20T18:52:59;-21971.16;;;25.26;66.81
19890;BME280;10107;51.198;6.824;2023-08-20T18:57:00;-21968.19;;;25.15;67.42
19890;BME280;10107;51.198;6.824;2023-08-20T19:01:05;-21965.47;;;25.04;67.40
19890;BME280;10107;51.198;6.824;2023-08-20T19:05:08;-21962.25;;;24.91;68.14
19890;BME280;10107;51.198;6.824;2023-08-20T19:09:09;-21959.66;;;24.81;68.80
19890;BME280;10107;51.198;6.824;2023-08-20T19:13:11;-21957.84;;;24.74;69.74
19890;BME280;10107;51.198;6.824;2023-08-20T19:17:14;-21955.78;;;24.65;70.17
19890;BME280;10107;51.198;6.824;2023-08-20T19:21:15;-21953.97;;;24.58;71.17
19890;BME280;10107;51.198;6.824;2023-08-20T19:25:17;-21951.50;;;24.48;73.28
19890;BME280;10107;51.198;6.824;2023-08-20T19:29:19;-21949.06;;;24.39;73.71
19890;BME280;10107;51.198;6.824;2023-08-20T19:33:22;-21946.88;;;24.30;75.47
19890;BME280;10107;51.198;6.824;2023-08-20T19:37:24;-21944.03;;;24.19;75.65
19890;BME280;10107;51.198;6.824;2023-08-20T19:41:25;-21941.31;;;24.08;75.88
19890;BME280;10107;51.198;6.824;2023-08-20T19:45:27;-21939.88;;;24.02;75.32
19890;BME280;10107;51.198;6.824;2023-08-20T19:49:30;-21938.47;;;23.97;75.69
19890;BME280;10107;51.198;6.824;2023-08-20T19:53:33;-21937.28;;;23.92;76.86
19890;BME280;10107;51.198;6.824;2023-08-20T19:57:34;-21935.72;;;23.86;77.07
19890;BME280;10107;51.198;6.824;2023-08-20T20:01:45;-21933.78;;;23.78;77.69
19890;BME280;10107;51.198;6.824;2023-08-20T20:05:48;-21932.25;;;23.72;78.39
19890;BME280;10107;51.198;6.824;2023-08-20T20:09:50;-21930.03;;;23.63;79.46
19890;BME280;10107;51.198;6.824;2023-08-20T20:13:52;-21926.94;;;23.51;81.10
19890;BME280;10107;51.198;6.824;2023-08-20T20:17:53;-21924.09;;;23.40;82.85
19890;BME280;10107;51.198;6.824;2023-08-20T20:21:57;-21921.09;;;23.28;83.97
19890;BME280;10107;51.198;6.824;2023-08-20T20:25:58;-21918.38;;;23.17;85.99
19890;BME280;10107;51.198;6.824;2023-08-20T20:30:01;-21915.78;;;23.07;86.66
19890;BME280;10107;51.198;6.824;2023-08-20T20:34:04;-21912.94;;;22.96;87.32
19890;BME280;10107;51.198;6.824;2023-08-20T20:38:07;-21910.47;;;22.86;87.83
19890;BME280;10107;51.198;6.824;2023-08-20T20:42:10;-21909.03;;;22.80;88.21
19890;BME280;10107;51.198;6.824;2023-08-20T20:46:12;-21907.34;;;22.73;89.10
19890;BME280;10107;51.198;6.824;2023-08-20T20:50:16;-21905.28;;;22.65;90.41
19890;BME280;10107;51.198;6.824;2023-08-20T20:54:19;-21904.13;;;22.61;90.02
19890;BME280;10107;51.198;6.824;2023-08-20T20:58:20;-21903.34;;;22.58;88.00
19890;BME280;10107;51.198;6.824;2023-08-20T21:02:22;-21902.94;;;22.56;90.11